Time;durP1;ratioP1;P1;durP2;ratioP2;P2;SDS_P1;SDS_P2;PMS_P1;PMS_P2;Temp;Humidity;BMP_temperature;BMP_pressure;BME280_temperature;BME280_humidity;BME280_pressure;Samples;Min_cycle;Max_cycle;Signal;HPM_P1;HPM_P2
2022/05/22 03:01:51;;;;;;;15.57;14.03;;;9.70;99.90;;;;;;5297234;23;20241;-81
2022/05/22 03:04:17;;;;;;;13.33;12.53;;;9.70;99.90;;;;;;4960281;29;20185;-82
2022/05/22 03:06:43;;;;;;;14.83;14.03;;;9.70;99.90;;;;;;4958933;29;20687;-81
2022/05/22 03:09:12;;;;;;;11.37;10.77;;;9.70;99.90;;;;;;4959043;28;20186;-82
2022/05/22 03:11:39;;;;;;;29.83;28.23;;;9.70;99.90;;;;;;4960425;28;20194;-82
2022/05/22 03:14:05;;;;;;;12.73;12.03;;;9.60;99.90;;;;;;4961118;28;20186;-83
2022/05/22 03:16:31;;;;;;;18.20;17.30;;;9.50;99.90;;;;;;4969351;28;20185;-80
2022/05/22 03:18:56;;;;;;;12.77;12.10;;;9.50;99.90;;;;;;4969168;29;20284;-82
2022/05/22 03:21:22;;;;;;;12.73;11.77;;;9.50;99.90;;;;;;4974167;28;20205;-83
2022/05/22 03:23:49;;;;;;;15.80;14.77;;;9.40;99.90;;;;;;4971777;28;20213;-81
2022/05/22 03:26:15;;;;;;;17.70;16.67;;;9.40;99.90;;;;;;4961513;29;20680;-82
2022/05/22 03:28:41;;;;;;;15.40;14.60;;;9.40;99.90;;;;;;4961219;29;20185;-82
2022/05/22 03:31:06;;;;;;;13.37;12.67;;;9.40;99.90;;;;;;4961815;28;20209;-81
2022/05/22 03:33:32;;;;;;;12.70;11.70;;;9.40;99.90;;;;;;4961305;29;20185;-82
2022/05/22 03:35:58;;;;;;;12.23;11.53;;;9.40;99.90;;;;;;4961126;28;20189;-83
2022/05/22 03:38:24;;;;;;;15.73;14.80;;;9.40;99.90;;;;;;4960755;29;20245;-82
2022/05/22 03:40:50;;;;;;;13.80;12.70;;;9.30;99.90;;;;;;4962261;28;20202;-83
2022/05/22 03:43:17;;;;;;;11.33;10.80;;;9.40;99.90;;;;;;4962592;29;20296;-83
2022/05/22 03:45:44;;;;;;;14.30;13.23;;;9.40;99.90;;;;;;4964849;28;20182;-83
2022/05/22 03:48:11;;;;;;;14.83;13.93;;;9.40;99.90;;;;;;4968670;28;20219;-83
2022/05/22 03:50:37;;;;;;;11.03;10.37;;;9.30;99.90;;;;;;4969028;28;20202;-82
2022/05/22 03:53:04;;;;;;;12.47;11.77;;;9.40;99.90;;;;;;4965458;28;20640;-81
2022/05/22 03:55:30;;;;;;;12.83;11.93;;;9.40;99.90;;;;;;4970388;29;20193;-82
2022/05/22 03:57:56;;;;;;;11.30;10.70;;;9.40;99.90;;;;;;4970856;29;20233;-83
2022/05/22 04:00:23;;;;;;;12.53;11.83;;;9.50;99.90;;;;;;4968615;28;20185;-83
2022/05/22 04:02:50;;;;;;;11.90;11.13;;;9.40;99.90;;;;;;4972974;28;20206;-83
2022/05/22 04:05:16;;;;;;;10.93;10.23;;;9.50;99.90;;;;;;4973296;28;20717;-81
2022/05/22 04:07:45;;;;;;;11.40;10.77;;;9.60;99.90;;;;;;4963325;29;20220;-83
2022/05/22 04:10:13;;;;;;;11.57;10.87;;;9.70;99.90;;;;;;4960468;28;20215;-84
2022/05/22 04:12:40;;;;;;;11.83;11.10;;;9.70;99.90;;;;;;4960354;28;20658;-84
2022/05/22 04:15:08;;;;;;;12.63;12.03;;;9.80;99.90;;;;;;4944086;29;20650;-82
2022/05/22 04:17:35;;;;;;;11.57;10.87;;;9.90;99.90;;;;;;4965761;28;20194;-82
2022/05/22 04:20:02;;;;;;;55.50;52.47;;;10.00;99.90;;;;;;4976811;28;20174;-84
2022/05/22 04:22:27;;;;;;;15.90;15.00;;;10.10;99.90;;;;;;4977014;28;20194;-84
2022/05/22 04:25:12;;;;;;;10.43;9.73;;;10.20;99.90;;;;;;4978822;28;20182;-83
2022/05/22 04:27:39;;;;;;;12.00;11.10;;;10.30;99.90;;;;;;4979538;28;20217;-85
2022/05/22 04:30:06;;;;;;;10.00;9.50;;;10.40;99.90;;;;;;4979815;28;20181;-84
2022/05/22 04:32:32;;;;;;;6.73;6.23;;;10.50;99.90;;;;;;4963002;28;20237;-85
2022/05/22 04:34:58;;;;;;;7.00;6.60;;;10.50;99.90;;;;;;4979320;28;20170;-86
2022/05/22 04:37:24;;;;;;;7.20;6.53;;;10.60;99.90;;;;;;4967810;28;20197;-84
2022/05/22 04:39:50;;;;;;;6.97;6.27;;;10.70;99.90;;;;;;4969289;29;20218;-84
2022/05/22 04:42:16;;;;;;;7.83;6.40;;;10.80;99.90;;;;;;4963300;28;20233;-84
2022/05/22 04:44:41;;;;;;;6.73;6.33;;;11.00;99.90;;;;;;4960758;28;20177;-85
2022/05/22 04:47:07;;;;;;;12.40;11.60;;;11.10;99.90;;;;;;4961147;29;20556;-83
2022/05/22 04:49:33;;;;;;;42.60;40.40;;;11.20;99.90;;;;;;4960037;29;20182;-83
2022/05/22 04:52:00;;;;;;;41.47;39.27;;;11.30;99.90;;;;;;4960438;28;20210;-85
2022/05/22 04:54:26;;;;;;;27.83;26.37;;;11.40;99.90;;;;;;4960117;29;20189;-84
2022/05/22 04:56:53;;;;;;;15.93;14.97;;;11.50;99.90;;;;;;4959139;29;20186;-82
2022/05/22 04:59:20;;;;;;;15.03;10.10;;;11.60;99.90;;;;;;4959286;28;20641;-84
2022/05/22 05:01:46;;;;;;;8.10;7.50;;;11.80;99.90;;;;;;4958902;28;20214;-84
2022/05/22 05:04:13;;;;;;;7.73;7.23;;;12.00;99.90;;;;;;4960454;29;20301;-83
2022/05/22 05:06:39;;;;;;;17.57;16.50;;;12.30;99.90;;;;;;4961242;28;20185;-85
2022/05/22 05:09:05;;;;;;;71.87;68.27;;;12.60;99.90;;;;;;4965619;29;20181;-84
2022/05/22 05:11:31;;;;;;;39.50;37.50;;;13.00;99.90;;;;;;4962570;28;20227;-85
2022/05/22 05:13:57;;;;;;;13.23;12.17;;;13.30;99.90;;;;;;4963174;29;20645;-85
2022/05/22 05:16:23;;;;;;;5.73;5.23;;;13.90;99.90;;;;;;4967992;29;20190;-85
2022/05/22 05:18:48;;;;;;;20.00;18.93;;;14.50;99.90;;;;;;4960261;29;20185;-85
2022/05/22 05:21:17;;;;;;;20.17;19.03;;;15.10;99.90;;;;;;4959477;28;20209;-83
2022/05/22 05:23:43;;;;;;;13.97;13.07;;;15.80;99.90;;;;;;4961053;28;20219;-85
2022/05/22 05:26:09;;;;;;;9.70;9.20;;;16.10;99.90;;;;;;4959494;29;20225;-83
2022/05/22 05:28:35;;;;;;;8.43;5.77;;;16.40;99.90;;;;;;4959487;28;20444;-84
2022/05/22 05:31:02;;;;;;;6.60;6.10;;;16.60;99.90;;;;;;4960477;28;20580;-85
2022/05/22 05:33:30;;;;;;;17.33;16.53;;;17.00;99.90;;;;;;4959347;28;20192;-83
2022/05/22 05:35:55;;;;;;;22.23;21.17;;;17.30;99.90;;;;;;4960225;29;20629;-83
2022/05/22 05:38:21;;;;;;;11.33;10.73;;;17.50;99.90;;;;;;4958882;29;20216;-83
2022/05/22 05:40:50;;;;;;;8.00;7.60;;;17.60;99.90;;;;;;4965146;28;20209;-84
2022/05/22 05:43:16;;;;;;;8.27;7.67;;;18.00;99.90;;;;;;4966975;29;20213;-85
2022/05/22 05:45:43;;;;;;;11.93;11.13;;;18.00;99.90;;;;;;4961442;28;20248;-84
2022/05/22 05:48:09;;;;;;;35.50;33.60;;;18.20;99.90;;;;;;4959319;28;20240;-85
2022/05/22 05:50:35;;;;;;;21.43;20.33;;;18.70;99.90;;;;;;4959957;28;20270;-82
2022/05/22 05:53:02;;;;;;;23.23;21.92;;;19.00;99.90;;;;;;4958703;28;20178;-85
2022/05/22 05:55:29;;;;;;;24.95;23.65;;;19.40;99.90;;;;;;4959087;28;20181;-84
2022/05/22 05:57:56;;;;;;;21.05;19.80;;;19.70;99.90;;;;;;4966210;28;20182;-84
2022/05/22 06:00:24;;;;;;;18.25;17.20;;;20.10;99.90;;;;;;4969996;28;20190;-85
2022/05/22 06:02:50;;;;;;;16.77;15.98;;;20.10;99.90;;;;;;4969493;28;20213;-85
2022/05/22 06:05:16;;;;;;;9.35;8.70;;;20.20;99.90;;;;;;4967757;28;20336;-83
2022/05/22 06:07:42;;;;;;;8.20;7.75;;;20.30;99.90;;;;;;4961847;29;20634;-83
2022/05/22 06:10:11;;;;;;;9.95;9.30;;;20.20;99.90;;;;;;4962759;28;20182;-82
2022/05/22 06:12:36;;;;;;;7.05;6.40;;;20.10;99.90;;;;;;4960447;29;20264;-85
2022/05/22 06:15:02;;;;;;;10.65;9.77;;;19.90;99.90;;;;;;4961205;29;20209;-85
2022/05/22 06:17:35;;;;;;;11.60;10.98;;;19.70;99.90;;;;;;4960092;28;20182;-84
2022/05/22 06:20:03;;;;;;;11.43;10.63;;;19.70;99.90;;;;;;4962977;28;20190;-85
2022/05/22 06:22:30;;;;;;;8.10;7.50;;;19.90;99.90;;;;;;4962234;28;20261;-85
2022/05/22 06:24:57;;;;;;;7.30;6.90;;;20.40;99.90;;;;;;4963076;28;20553;-84
2022/05/22 06:27:24;;;;;;;6.63;4.65;;;20.90;99.90;;;;;;4962365;28;20693;-86
2022/05/22 06:29:49;;;;;;;5.55;5.15;;;20.90;99.90;;;;;;4961272;29;20273;-85
2022/05/22 06:32:18;;;;;;;5.13;4.80;;;21.40;99.90;;;;;;4960474;28;20232;-84
2022/05/22 06:34:44;;;;;;;6.32;5.28;;;21.90;99.90;;;;;;4960095;29;20188;-81
2022/05/22 06:37:13;;;;;;;7.90;7.40;;;22.20;99.90;;;;;;4960813;28;20174;-82
2022/05/22 06:39:51;;;;;;;5.18;4.72;;;22.20;99.90;;;;;;4973295;29;20193;-82
2022/05/22 06:42:27;;;;;;;6.15;5.65;;;22.40;99.90;;;;;;4980408;28;20209;-86
2022/05/22 06:44:56;;;;;;;5.35;4.07;;;22.60;99.90;;;;;;4980259;28;20202;-86
2022/05/22 06:47:23;;;;;;;5.20;4.80;;;22.90;99.90;;;;;;4978062;28;20617;-84
2022/05/22 06:49:50;;;;;;;5.15;4.72;;;23.10;99.90;;;;;;4970817;28;20190;-85
2022/05/22 06:52:16;;;;;;;6.13;5.15;;;23.30;99.90;;;;;;4967481;28;20631;-84
2022/05/22 06:54:42;;;;;;;4.88;4.47;;;23.30;98.80;;;;;;4963911;28;20225;-83
2022/05/22 06:57:08;;;;;;;5.78;4.38;;;22.90;99.10;;;;;;4963940;29;20193;-83
2022/05/22 06:59:34;;;;;;;4.93;4.43;;;23.30;99.90;;;;;;4962704;29;20194;-85
2022/05/22 07:02:00;;;;;;;4.53;4.22;;;23.60;99.50;;;;;;4963754;28;20223;-84
2022/05/22 07:04:27;;;;;;;5.50;5.18;;;23.70;99.10;;;;;;4962654;28;20308;-84
2022/05/22 07:06:53;;;;;;;4.55;4.30;;;23.60;99.50;;;;;;4963093;28;20182;-84
2022/05/22 07:09:19;;;;;;;4.97;4.50;;;23.90;98.60;;;;;;4960790;28;20182;-83
2022/05/22 07:11:45;;;;;;;5.03;4.65;;;23.70;99.90;;;;;;4961459;28;20209;-84
2022/05/22 07:14:14;;;;;;;4.90;4.55;;;24.10;98.90;;;;;;4962809;28;20192;-82
2022/05/22 07:16:41;;;;;;;4.68;4.43;;;24.20;96.30;;;;;;4970937;28;20194;-86
2022/05/22 07:19:09;;;;;;;4.95;4.60;;;24.30;96.60;;;;;;4980515;28;20166;-86
2022/05/22 07:21:35;;;;;;;8.18;7.45;;;24.60;95.80;;;;;;4965799;28;20296;-83
2022/05/22 07:24:01;;;;;;;3.85;3.63;;;24.40;94.70;;;;;;4977831;28;20207;-86
2022/05/22 07:26:28;;;;;;;4.57;4.18;;;24.70;94.60;;;;;;4975132;28;20646;-86
2022/05/22 07:28:54;;;;;;;5.70;4.60;;;25.10;94.70;;;;;;4962685;28;20260;-84
2022/05/22 07:31:22;;;;;;;4.50;4.22;;;25.40;93.60;;;;;;4962905;28;20288;-84
2022/05/22 07:33:49;;;;;;;4.38;4.07;;;25.30;93.90;;;;;;4961721;29;20185;-83
2022/05/22 07:36:16;;;;;;;5.95;4.60;;;25.20;93.00;;;;;;4962426;28;20265;-86
2022/05/22 07:38:42;;;;;;;4.85;4.50;;;25.40;92.90;;;;;;4962198;29;20186;-83
2022/05/22 07:41:07;;;;;;;6.20;5.88;;;25.50;93.00;;;;;;4961827;28;20234;-84
2022/05/22 07:43:33;;;;;;;7.32;6.80;;;25.80;91.00;;;;;;4960562;29;20241;-86
2022/05/22 07:45:59;;;;;;;7.05;6.45;;;25.90;87.10;;;;;;4960028;29;20193;-85
2022/05/22 07:48:25;;;;;;;6.13;5.53;;;26.10;87.10;;;;;;4961894;29;20184;-85
2022/05/22 07:50:57;;;;;;;6.43;5.43;;;26.20;84.60;;;;;;4959960;28;20658;-83
2022/05/22 07:53:24;;;;;;;7.20;6.70;;;26.20;83.40;;;;;;4961331;29;20550;-85
2022/05/22 07:55:50;;;;;;;11.88;10.88;;;26.00;82.50;;;;;;4960261;29;20189;-83
2022/05/22 07:58:17;;;;;;;12.60;11.60;;;26.00;82.00;;;;;;4959737;29;20186;-84
2022/05/22 08:00:42;;;;;;;15.18;14.02;;;26.20;80.80;;;;;;4959626;28;20221;-82
2022/05/22 08:03:10;;;;;;;9.30;8.75;;;26.30;78.00;;;;;;4959772;29;20720;-82
2022/05/22 08:05:36;;;;;;;10.80;10.25;;;26.70;78.10;;;;;;4965877;28;20269;-83
2022/05/22 08:08:02;;;;;;;10.82;10.23;;;26.90;77.50;;;;;;4970436;28;20193;-84
2022/05/22 08:10:28;;;;;;;9.48;8.90;;;26.80;73.60;;;;;;4972715;28;20181;-84
2022/05/22 08:12:54;;;;;;;8.65;8.00;;;26.70;74.30;;;;;;4967191;28;20199;-85
2022/05/22 08:15:23;;;;;;;7.05;6.63;;;26.60;73.40;;;;;;4964803;29;20281;-85
2022/05/22 08:17:49;;;;;;;8.10;7.60;;;26.50;74.00;;;;;;4964039;28;20193;-83
2022/05/22 08:20:19;;;;;;;7.00;6.63;;;26.60;72.50;;;;;;4979118;28;20178;-83
2022/05/22 08:22:46;;;;;;;7.72;6.93;;;26.30;73.30;;;;;;4961536;29;20245;-83
2022/05/22 08:25:15;;;;;;;7.90;7.40;;;26.70;76.10;;;;;;4960807;29;20189;-85
2022/05/22 08:27:41;;;;;;;9.43;8.25;;;27.10;73.40;;;;;;4958934;28;20186;-83
2022/05/22 08:30:10;;;;;;;7.97;7.53;;;27.40;71.00;;;;;;4960464;29;20554;-82
2022/05/22 08:32:38;;;;;;;7.53;7.13;;;27.30;68.70;;;;;;4976754;28;20245;-83
2022/05/22 08:35:05;;;;;;;9.90;9.18;;;26.30;64.60;;;;;;4959146;28;20212;-83
2022/05/22 08:37:33;;;;;;;9.02;8.55;;;26.40;68.90;;;;;;4960119;29;20181;-82
2022/05/22 08:39:59;;;;;;;8.50;8.10;;;26.80;68.80;;;;;;4964755;28;20241;-82
2022/05/22 08:42:38;;;;;;;8.68;8.27;;;26.80;64.20;;;;;;4963640;28;20225;-82
2022/05/22 08:45:19;;;;;;;8.20;7.80;;;26.20;66.30;;;;;;4970271;28;20181;-85
2022/05/22 08:47:57;;;;;;;8.15;7.75;;;26.30;67.70;;;;;;4960927;28;20646;-84
2022/05/22 08:50:23;;;;;;;12.55;11.75;;;26.60;64.70;;;;;;4960231;28;20244;-82
2022/05/22 08:53:01;;;;;;;13.77;13.05;;;25.70;64.90;;;;;;4964566;28;20170;-85
2022/05/22 09:01:14;;;;;;;11.68;10.98;;;26.90;61.10;;;;;;4974928;28;20228;-84
2022/05/22 09:03:52;;;;;;;10.40;9.55;;;26.70;60.80;;;;;;4973629;28;20244;-83
2022/05/22 09:06:29;;;;;;;8.85;8.35;;;26.40;62.40;;;;;;4977146;28;20185;-84
2022/05/22 09:08:55;;;;;;;10.40;9.90;;;27.00;60.50;;;;;;4961651;28;20189;-85
2022/05/22 09:11:40;;;;;;;9.23;8.68;;;27.60;60.20;;;;;;4963881;28;20214;-86
2022/05/22 09:14:24;;;;;;;9.15;8.65;;;27.60;59.30;;;;;;4967950;23;20324;-78
2022/05/22 09:17:01;;;;;;;10.20;9.35;;;27.20;59.20;;;;;;4952882;28;20177;-79
2022/05/22 09:19:43;;;;;;;9.45;9.02;;;27.50;59.90;;;;;;4953658;29;20654;-77
2022/05/22 09:22:21;;;;;;;8.25;7.80;;;27.60;57.70;;;;;;4953608;28;20185;-77
2022/05/22 09:25:05;;;;;;;10.80;10.32;;;27.60;58.50;;;;;;4953086;28;20221;-77
2022/05/22 09:27:54;;;;;;;10.35;9.68;;;27.60;57.90;;;;;;4952828;29;20188;-77
2022/05/22 09:30:32;;;;;;;11.00;10.48;;;27.60;57.80;;;;;;4953348;29;20197;-77
2022/05/22 09:33:07;;;;;;;8.38;7.85;;;27.60;58.00;;;;;;4955086;28;20766;-77
2022/05/22 09:36:35;;;;;;;5.82;5.32;;;27.70;58.00;;;;;;4957813;29;20177;-79
2022/05/22 09:39:28;;;;;;;10.73;10.13;;;27.90;56.70;;;;;;4877955;29;20561;-77
2022/05/22 09:42:26;;;;;;;4.80;4.55;;;27.90;58.00;;;;;;4951369;29;20197;-77
2022/05/22 09:45:28;;;;;;;7.05;6.65;;;27.90;56.00;;;;;;4968351;28;20252;-78
2022/05/22 09:48:14;;;;;;;6.40;5.93;;;27.50;58.20;;;;;;4953392;28;20181;-79
2022/05/22 09:50:49;;;;;;;5.65;5.22;;;27.50;56.80;;;;;;4952973;29;20201;-78
2022/05/22 09:53:20;;;;;;;12.88;12.27;;;27.50;57.50;;;;;;4957792;28;20227;-78
2022/05/22 09:55:50;;;;;;;5.43;5.07;;;28.20;59.40;;;;;;4958254;28;20272;-78
2022/05/22 09:58:43;;;;;;;4.32;3.97;;;28.10;58.70;;;;;;4957952;28;20188;-78
2022/05/22 10:01:18;;;;;;;3.58;3.38;;;28.60;57.50;;;;;;4959689;28;20189;-78
2022/05/22 10:04:14;;;;;;;3.20;3.00;;;29.00;55.70;;;;;;4959506;28;20213;-78
2022/05/22 10:06:54;;;;;;;6.13;5.78;;;29.60;54.50;;;;;;4962769;28;20193;-78
2022/05/22 10:09:35;;;;;;;12.63;12.00;;;30.00;55.00;;;;;;4961265;28;20215;-78
2022/05/22 10:12:20;;;;;;;6.20;5.85;;;30.50;54.10;;;;;;4961036;28;20253;-79
2022/05/22 10:15:23;;;;;;;9.02;8.55;;;30.50;51.70;;;;;;4958209;28;20244;-78
2022/05/22 10:18:01;;;;;;;4.18;3.97;;;30.60;54.00;;;;;;4974477;28;20689;-78
2022/05/22 10:21:03;;;;;;;5.70;5.28;;;30.40;51.40;;;;;;4960840;28;20216;-78
2022/05/22 10:23:37;;;;;;;6.18;5.88;;;29.80;53.40;;;;;;4973769;28;20279;-78
2022/05/22 10:26:27;;;;;;;7.45;6.82;;;28.40;56.80;;;;;;4958016;29;20177;-78
2022/05/22 10:29:24;;;;;;;7.93;7.28;;;28.50;55.90;;;;;;4957759;28;20260;-78
2022/05/22 10:32:02;;;;;;;10.05;8.43;;;28.50;55.40;;;;;;4961104;28;20240;-78
2022/05/22 10:34:39;;;;;;;8.95;8.45;;;29.20;55.80;;;;;;4958286;28;20205;-78
2022/05/22 10:37:31;;;;;;;7.50;7.10;;;30.10;54.10;;;;;;4960502;28;20562;-78
2022/05/22 10:39:59;;;;;;;19.80;14.25;;;30.90;51.40;;;;;;4959421;28;20810;-78
2022/05/22 10:42:47;;;;;;;6.47;6.13;;;30.20;52.90;;;;;;4960955;28;20552;-78
2022/05/22 10:45:35;;;;;;;42.22;25.05;;;29.60;53.90;;;;;;4962038;29;20194;-78
2022/05/22 10:48:17;;;;;;;18.27;16.33;;;29.70;54.10;;;;;;4957981;28;20192;-78
2022/05/22 10:51:16;;;;;;;4.43;4.13;;;30.10;53.70;;;;;;4958469;28;20670;-78
2022/05/22 10:54:00;;;;;;;10.63;8.68;;;30.40;52.60;;;;;;4961196;28;20209;-78
2022/05/22 10:56:29;;;;;;;3.50;3.22;;;30.40;51.70;;;;;;4960341;28;20192;-79
2022/05/22 10:59:04;;;;;;;6.07;5.57;;;30.70;51.40;;;;;;4974516;28;20202;-79
2022/05/22 11:01:32;;;;;;;2.85;2.60;;;31.00;49.20;;;;;;4959206;28;20193;-79
2022/05/22 11:04:08;;;;;;;5.30;5.10;;;31.50;50.60;;;;;;4956986;28;20218;-77
2022/05/22 11:06:37;;;;;;;12.63;11.50;;;31.50;49.90;;;;;;4955236;29;20673;-78
2022/05/22 11:09:05;;;;;;;11.85;11.15;;;31.30;48.60;;;;;;4956120;28;20178;-78
2022/05/22 11:11:34;;;;;;;10.38;9.48;;;31.70;48.70;;;;;;4957657;29;20182;-78
2022/05/22 11:14:13;;;;;;;14.85;14.18;;;32.10;51.20;;;;;;4973336;28;20470;-79
2022/05/22 11:16:40;;;;;;;18.85;17.90;;;32.70;48.60;;;;;;4956548;29;20262;-79
2022/05/22 11:19:23;;;;;;;13.52;12.75;;;32.60;48.00;;;;;;4956066;29;20650;-79
2022/05/22 11:21:55;;;;;;;13.35;12.70;;;32.30;47.00;;;;;;4958981;29;20665;-79
2022/05/22 11:24:32;;;;;;;19.45;18.27;;;32.70;46.70;;;;;;4957032;28;20240;-79
2022/05/22 11:27:09;;;;;;;8.65;8.15;;;32.70;48.20;;;;;;4955606;28;20217;-78
2022/05/22 11:30:00;;;;;;;9.10;8.60;;;32.90;46.50;;;;;;4955200;28;20276;-79
2022/05/22 11:32:43;;;;;;;17.73;16.85;;;32.50;46.90;;;;;;4957220;28;20189;-79
2022/05/22 11:35:37;;;;;;;6.55;6.25;;;31.20;48.10;;;;;;4957125;29;20654;-78
2022/05/22 11:38:08;;;;;;;5.88;5.50;;;30.30;50.50;;;;;;4956335;29;20530;-78
2022/05/22 11:41:19;;;;;;;4.57;4.32;;;30.00;50.10;;;;;;4956694;29;20248;-79
2022/05/22 11:44:07;;;;;;;6.13;5.68;;;29.00;51.00;;;;;;4916966;29;20282;-79
2022/05/22 11:46:49;;;;;;;5.82;5.53;;;28.50;52.60;;;;;;4958245;29;20190;-80
2022/05/22 11:49:47;;;;;;;4.22;4.03;;;28.60;52.20;;;;;;4957723;28;20223;-79
2022/05/22 11:55:29;;;;;;;3.47;3.17;;;30.70;50.20;;;;;;4955642;29;20182;-79
2022/05/22 11:58:09;;;;;;;4.82;4.45;;;31.80;49.10;;;;;;4954852;28;20196;-78
2022/05/22 12:00:44;;;;;;;14.20;13.52;;;32.20;47.30;;;;;;4955897;28;20188;-78
2022/05/22 12:03:37;;;;;;;16.52;15.63;;;32.90;46.00;;;;;;4958164;28;20208;-78
2022/05/22 12:06:21;;;;;;;12.75;12.13;;;33.00;46.50;;;;;;4959547;29;20688;-77
2022/05/22 12:08:59;;;;;;;19.38;18.27;;;33.30;45.00;;;;;;4955664;29;20189;-78
2022/05/22 12:11:39;;;;;;;7.90;7.18;;;33.80;46.80;;;;;;4953453;28;20268;-77
2022/05/22 12:14:17;;;;;;;5.55;5.35;;;34.00;46.00;;;;;;4954638;28;20221;-78
2022/05/22 12:17:12;;;;;;;6.60;6.30;;;33.70;45.90;;;;;;4953381;28;20193;-79
2022/05/22 12:19:58;;;;;;;5.88;5.43;;;33.50;46.40;;;;;;4947172;28;20197;-78
2022/05/22 12:25:16;;;;;;;8.52;8.05;;;32.10;46.70;;;;;;4956251;29;20344;-78
2022/05/22 12:27:42;;;;;;;4.60;4.40;;;33.00;47.40;;;;;;4954351;28;20193;-78
2022/05/22 12:30:25;;;;;;;4.05;3.85;;;33.80;45.50;;;;;;4955048;28;20515;-78
2022/05/22 12:33:04;;;;;;;2.97;2.75;;;34.00;44.00;;;;;;4954380;28;20810;-76
2022/05/22 12:35:30;;;;;;;4.00;3.83;;;33.40;44.40;;;;;;4954292;28;20188;-77
2022/05/22 12:37:59;;;;;;;3.88;3.67;;;33.40;44.90;;;;;;4953766;28;20186;-77
2022/05/22 12:40:49;;;;;;;4.05;3.83;;;33.50;44.20;;;;;;4953480;28;20556;-78
2022/05/22 12:43:18;;;;;;;3.70;3.42;;;33.00;43.00;;;;;;4954627;28;20694;-77
2022/05/22 12:45:50;;;;;;;7.47;7.05;;;32.80;42.90;;;;;;4954756;28;20189;-77
2022/05/22 12:48:36;;;;;;;6.03;5.80;;;32.30;44.00;;;;;;4954252;28;20182;-77
2022/05/22 12:51:31;;;;;;;3.35;3.15;;;33.10;43.20;;;;;;4954143;28;20181;-77
2022/05/22 12:54:26;;;;;;;4.80;4.43;;;33.90;40.90;;;;;;4955065;28;20713;-77
2022/05/22 12:56:53;;;;;;;5.45;4.45;;;33.90;40.10;;;;;;4953844;28;20201;-78
2022/05/22 12:59:20;;;;;;;7.13;6.80;;;34.40;42.00;;;;;;4954190;28;20184;-78
2022/05/22 13:01:51;;;;;;;8.52;7.93;;;35.10;40.30;;;;;;4955337;28;20277;-78
2022/05/22 13:04:22;;;;;;;8.02;7.53;;;34.80;39.90;;;;;;4957317;28;20244;-78
2022/05/22 13:07:11;;;;;;;9.70;9.25;;;34.10;39.90;;;;;;4954285;28;20181;-79
2022/05/22 13:09:51;;;;;;;11.32;10.52;;;34.30;40.70;;;;;;4954587;29;20245;-79
2022/05/22 13:12:16;;;;;;;9.52;8.93;;;34.90;39.30;;;;;;4954272;28;20188;-79
2022/05/22 13:14:51;;;;;;;10.57;10.00;;;34.60;39.00;;;;;;4954156;28;20221;-78
2022/05/22 13:17:30;;;;;;;10.73;10.18;;;34.70;38.70;;;;;;4954067;28;20188;-79
2022/05/22 13:20:02;;;;;;;8.63;7.85;;;34.90;39.80;;;;;;4954256;28;20185;-78
2022/05/22 13:22:34;;;;;;;8.40;8.00;;;34.70;38.80;;;;;;4954090;28;20200;-78
2022/05/22 13:25:02;;;;;;;11.15;10.35;;;34.00;39.20;;;;;;4957809;29;20193;-78
2022/05/22 13:27:30;;;;;;;19.75;18.77;;;33.70;39.80;;;;;;4953175;28;20213;-79
2022/05/22 13:30:05;;;;;;;9.05;8.23;;;33.40;39.40;;;;;;4954963;29;20543;-78
2022/05/22 13:32:39;;;;;;;5.28;4.80;;;33.40;40.10;;;;;;4953961;28;20185;-79
2022/05/22 13:35:16;;;;;;;4.82;4.63;;;33.50;40.00;;;;;;4954036;28;20189;-79
2022/05/22 13:37:54;;;;;;;8.30;7.80;;;34.00;40.60;;;;;;4954571;28;20284;-77
2022/05/22 13:40:47;;;;;;;5.93;5.43;;;34.70;38.30;;;;;;4954836;28;20190;-78
2022/05/22 13:44:00;;;;;;;10.20;9.70;;;34.90;37.30;;;;;;4955689;28;20308;-78
2022/05/22 13:47:13;;;;;;;7.75;7.30;;;35.00;36.50;;;;;;4955079;28;20642;-77
2022/05/22 13:49:46;;;;;;;9.43;8.93;;;34.80;38.00;;;;;;4953746;28;20181;-79
2022/05/22 13:52:36;;;;;;;7.43;6.97;;;34.10;38.80;;;;;;4953997;28;20186;-78
2022/05/22 13:55:21;;;;;;;23.02;21.67;;;34.00;39.10;;;;;;4953368;28;20186;-77
2022/05/22 13:57:58;;;;;;;7.22;6.88;;;33.50;38.90;;;;;;4953775;29;20564;-77
2022/05/22 14:00:33;;;;;;;4.85;4.55;;;33.10;38.70;;;;;;4956520;28;20205;-77
2022/05/22 14:03:14;;;;;;;6.22;4.57;;;32.80;39.40;;;;;;4955894;28;20263;-77
2022/05/22 14:05:45;;;;;;;5.65;4.88;;;32.20;38.70;;;;;;4955839;28;20643;-78
2022/05/22 14:08:24;;;;;;;3.95;3.55;;;31.80;38.40;;;;;;4956174;28;20180;-78
2022/05/22 14:10:59;;;;;;;10.15;9.25;;;31.10;40.50;;;;;;4956450;28;20570;-78
2022/05/22 14:13:26;;;;;;;5.95;5.65;;;30.40;43.20;;;;;;4971845;28;20256;-77
2022/05/22 14:16:01;;;;;;;5.28;4.85;;;30.70;42.10;;;;;;4955348;28;20197;-78
2022/05/22 14:18:34;;;;;;;7.53;6.97;;;31.20;41.20;;;;;;4953542;28;20265;-79
2022/05/22 14:21:10;;;;;;;7.43;6.75;;;31.40;40.90;;;;;;4953241;28;20282;-79
2022/05/22 14:26:30;;;;;;;9.98;9.40;;;31.70;41.90;;;;;;4953953;29;20182;-77
2022/05/22 14:28:59;;;;;;;5.50;5.00;;;32.50;40.30;;;;;;4953384;28;20233;-78
2022/05/22 14:31:30;;;;;;;3.10;3.00;;;33.00;38.30;;;;;;4955680;28;20185;-78
2022/05/22 14:33:59;;;;;;;6.95;6.40;;;33.00;39.10;;;;;;4956937;28;20268;-77
2022/05/22 14:36:26;;;;;;;18.00;16.10;;;33.40;37.50;;;;;;4956162;28;20178;-79
2022/05/22 14:38:52;;;;;;;6.65;6.22;;;33.40;38.70;;;;;;4956835;28;20182;-79
2022/05/22 14:41:28;;;;;;;5.78;5.50;;;33.40;38.40;;;;;;4957052;28;20189;-79
2022/05/22 14:43:57;;;;;;;5.25;4.95;;;34.10;37.30;;;;;;4956768;28;20217;-78
2022/05/22 14:47:01;;;;;;;7.05;6.60;;;35.30;34.20;;;;;;4955714;28;20181;-78
2022/05/22 14:49:28;;;;;;;14.70;13.60;;;34.80;35.10;;;;;;4924314;28;20190;-79
2022/05/22 14:52:06;;;;;;;10.23;9.50;;;33.80;36.90;;;;;;4956614;28;20525;-78
2022/05/22 14:54:50;;;;;;;9.70;8.98;;;32.40;38.20;;;;;;4956818;28;20214;-79
2022/05/22 14:57:29;;;;;;;11.60;10.70;;;30.80;39.80;;;;;;4956700;29;20189;-79
2022/05/22 15:00:13;;;;;;;8.25;7.75;;;30.00;42.90;;;;;;4957311;28;20252;-78
2022/05/22 15:02:47;;;;;;;15.23;14.25;;;29.60;40.90;;;;;;4971581;28;20280;-79
2022/05/22 15:05:20;;;;;;;9.50;8.95;;;29.40;42.20;;;;;;4955833;29;20182;-79
2022/05/22 15:07:59;;;;;;;7.80;7.30;;;29.70;41.60;;;;;;4956704;28;20182;-78
2022/05/22 15:10:38;;;;;;;5.43;5.03;;;29.70;40.60;;;;;;4957827;28;20704;-78
2022/05/22 15:13:26;;;;;;;4.30;4.10;;;29.50;41.20;;;;;;4984213;23;20218;-84
2022/05/22 15:15:52;;;;;;;5.63;5.13;;;29.60;39.30;;;;;;4981848;28;20191;-84
2022/05/22 15:19:48;;;;;;;6.90;6.60;;;29.50;40.70;;;;;;5001167;28;20185;-83
2022/05/22 15:21:15;;;;;;;5.40;3.88;;;29.50;40.50;;;;;;4982059;28;20188;-82
2022/05/22 15:26:27;;;;;;;5.80;5.47;;;29.00;42.60;;;;;;4978778;28;20231;-82
2022/05/22 15:28:53;;;;;;;14.98;14.18;;;28.70;43.20;;;;;;4978382;28;20197;-84
2022/05/22 15:31:32;;;;;;;24.52;23.27;;;28.40;44.10;;;;;;4986888;28;20253;-84
2022/05/22 15:34:21;;;;;;;16.20;15.40;;;28.10;44.80;;;;;;4989429;28;20304;-83
2022/05/22 15:36:47;;;;;;;10.35;9.57;;;27.80;45.40;;;;;;5001858;28;20177;-85
2022/05/22 15:39:26;;;;;;;9.40;8.90;;;27.50;48.00;;;;;;5018429;28;20179;-83
2022/05/22 15:42:01;;;;;;;7.68;7.32;;;27.40;48.40;;;;;;5017569;28;20255;-84
2022/05/22 15:44:34;;;;;;;8.30;7.90;;;27.50;48.40;;;;;;5017562;28;20320;-83
2022/05/22 15:47:17;;;;;;;12.32;11.73;;;27.30;47.40;;;;;;5005555;28;20180;-84
2022/05/22 15:52:41;;;;;;;14.32;13.70;;;27.10;48.90;;;;;;4985122;28;20181;-82
2022/05/22 15:55:08;;;;;;;16.95;16.15;;;27.10;47.90;;;;;;4987342;28;20200;-81
2022/05/22 15:57:33;;;;;;;22.77;21.77;;;27.20;48.50;;;;;;4992389;28;20192;-80
2022/05/22 15:59:59;;;;;;;18.90;17.95;;;27.20;49.30;;;;;;4993002;28;20181;-83
2022/05/22 16:02:34;;;;;;;36.75;34.88;;;27.20;49.90;;;;;;4981749;28;20661;-84
2022/05/22 16:05:00;;;;;;;39.03;36.17;;;27.10;52.80;;;;;;4981591;28;20254;-84
2022/05/22 16:07:28;;;;;;;17.40;16.40;;;26.60;54.50;;;;;;4980874;28;20173;-84
2022/05/22 16:09:54;;;;;;;15.18;14.25;;;26.30;54.50;;;;;;4977954;28;20193;-84
2022/05/22 16:12:20;;;;;;;11.82;11.13;;;26.10;54.60;;;;;;4978257;28;20264;-83
2022/05/22 16:14:46;;;;;;;14.43;13.15;;;26.00;54.90;;;;;;4984434;28;20292;-83
2022/05/22 16:17:17;;;;;;;12.88;11.85;;;26.10;53.70;;;;;;4984939;28;20185;-82
2022/05/22 16:19:52;;;;;;;22.10;19.83;;;26.00;53.70;;;;;;4983993;28;20208;-84
2022/05/22 16:22:18;;;;;;;13.30;12.43;;;25.90;53.90;;;;;;4982104;28;20211;-84
2022/05/22 16:24:44;;;;;;;13.88;12.88;;;25.80;54.60;;;;;;4978826;28;20613;-83
2022/05/22 16:27:10;;;;;;;15.63;14.73;;;25.70;54.30;;;;;;4979377;28;20216;-84
2022/05/22 16:29:36;;;;;;;23.00;21.52;;;25.60;54.60;;;;;;4979967;28;20181;-84
2022/05/22 16:32:03;;;;;;;20.05;18.98;;;25.60;55.40;;;;;;4979312;28;20181;-84